Time;durP1;ratioP1;P1;durP2;ratioP2;P2;SDS_P1;SDS_P2;PMS_P1;PMS_P2;Temp;Humidity;BMP_temperature;BMP_pressure;BME280_temperature;BME280_humidity;BME280_pressure;Samples;Min_cycle;Max_cycle;Signal;HPM_P1;HPM_P2
2022/08/09 00:01:09;;;;;;;7.97;2.00;;;;;;;16.88;83.43;102750.09;4992869;28;20030;-72
2022/08/09 00:03:34;;;;;;;6.43;2.20;;;;;;;16.67;83.85;102756.81;4994028;28;20492;-73
2022/08/09 00:05:59;;;;;;;3.83;2.00;;;;;;;16.51;85.03;102754.34;4992893;28;20038;-72
2022/08/09 00:08:24;;;;;;;4.40;1.90;;;;;;;16.52;85.66;102763.03;4993870;28;20093;-72
2022/08/09 00:10:50;;;;;;;4.75;2.10;;;;;;;16.49;85.59;102761.56;4994075;28;20022;-72
2022/08/09 00:13:15;;;;;;;5.93;2.00;;;;;;;16.50;85.44;102755.34;4992661;28;20406;-72
2022/08/09 00:15:40;;;;;;;4.75;2.05;;;;;;;16.35;85.66;102742.28;4993975;28;20026;-72
2022/08/09 00:18:06;;;;;;;7.28;3.03;;;;;;;16.59;85.25;102745.66;4995636;28;20101;-73
2022/08/09 00:20:31;;;;;;;7.55;3.10;;;;;;;16.63;84.40;102752.94;4992455;28;20019;-73
2022/08/09 00:22:56;;;;;;;7.55;2.08;;;;;;;16.44;84.77;102743.81;4992452;28;20046;-73
2022/08/09 00:25:21;;;;;;;5.88;1.98;;;;;;;16.39;85.56;102740.94;4993819;28;20066;-72
2022/08/09 00:27:47;;;;;;;4.20;2.05;;;;;;;16.25;86.60;102741.72;4992796;28;20446;-72
2022/08/09 00:30:12;;;;;;;5.03;2.00;;;;;;;16.37;86.42;102740.31;4992517;28;20033;-71
2022/08/09 00:32:38;;;;;;;6.53;2.13;;;;;;;16.40;85.65;102746.97;4992521;28;20390;-71
2022/08/09 00:35:04;;;;;;;6.22;2.10;;;;;;;16.39;86.23;102743.53;4993738;28;20057;-72
2022/08/09 00:37:29;;;;;;;8.23;2.38;;;;;;;16.27;86.82;102742.34;4994114;28;20453;-72
2022/08/09 00:39:55;;;;;;;9.07;2.00;;;;;;;16.37;86.85;102745.53;4993583;28;20057;-72
2022/08/09 00:42:21;;;;;;;5.22;2.22;;;;;;;16.41;86.28;102744.19;4993767;28;20018;-73
2022/08/09 00:44:46;;;;;;;6.03;2.22;;;;;;;16.43;86.16;102747.44;4993602;28;20027;-73
2022/08/09 00:47:12;;;;;;;4.70;2.30;;;;;;;16.52;85.81;102756.00;4993646;28;20448;-72
2022/08/09 00:49:37;;;;;;;3.88;2.10;;;;;;;16.21;87.08;102753.50;4993546;28;20062;-72
2022/08/09 00:52:04;;;;;;;5.78;2.10;;;;;;;15.94;88.40;102742.66;4993350;28;20121;-72
2022/08/09 00:54:30;;;;;;;8.15;2.63;;;;;;;16.02;88.80;102745.19;4993670;28;20029;-73
2022/08/09 00:56:55;;;;;;;6.03;2.30;;;;;;;15.93;88.63;102738.41;4993533;28;20109;-73
2022/08/09 00:59:20;;;;;;;6.15;2.47;;;;;;;15.93;89.21;102748.81;4993661;28;20030;-73
2022/08/09 01:01:47;;;;;;;7.60;2.33;;;;;;;15.89;89.37;102747.56;4993652;28;20470;-74
2022/08/09 01:04:21;;;;;;;4.65;2.22;;;;;;;15.80;89.67;102753.81;4991860;28;20026;-73
2022/08/09 01:07:12;;;;;;;5.35;2.30;;;;;;;15.79;89.70;102750.41;4994937;28;20038;-72
2022/08/09 01:09:52;;;;;;;6.05;2.50;;;;;;;15.81;89.56;102744.19;4995660;28;20030;-71
2022/08/09 01:12:41;;;;;;;4.28;2.30;;;;;;;15.91;89.70;102750.81;4995955;28;20057;-71
2022/08/09 01:15:10;;;;;;;5.45;2.10;;;;;;;16.10;88.63;102749.50;4997041;28;20334;-73
2022/08/09 01:17:43;;;;;;;6.38;2.25;;;;;;;16.00;87.72;102741.13;4995800;28;20478;-72
2022/08/09 01:20:27;;;;;;;4.57;2.20;;;;;;;15.75;88.83;102750.91;4997060;28;20478;-73
2022/08/09 01:23:30;;;;;;;3.88;2.10;;;;;;;15.59;90.12;102743.97;4996893;28;20108;-72
2022/08/09 01:26:10;;;;;;;8.75;2.40;;;;;;;15.65;91.07;102747.69;4995742;28;20017;-73
2022/08/09 01:28:42;;;;;;;8.73;2.53;;;;;;;15.98;90.46;102750.91;4995602;28;20038;-72
2022/08/09 01:31:14;;;;;;;4.78;2.70;;;;;;;16.03;89.86;102751.22;4996920;28;20390;-72
2022/08/09 01:33:43;;;;;;;7.07;2.78;;;;;;;16.08;89.55;102756.69;4995594;28;20023;-72
2022/08/09 01:36:16;;;;;;;5.88;2.50;;;;;;;16.15;88.79;102760.22;4996605;28;20109;-72
2022/08/09 01:38:44;;;;;;;5.28;2.80;;;;;;;15.99;89.50;102747.31;4995521;28;20033;-72
2022/08/09 01:41:15;;;;;;;5.40;2.60;;;;;;;16.05;89.19;102754.44;4996704;28;20034;-72
2022/08/09 01:43:45;;;;;;;7.20;2.80;;;;;;;15.93;89.46;102755.84;4996972;28;20105;-72
2022/08/09 01:46:12;;;;;;;6.60;2.80;;;;;;;15.97;89.86;102759.75;4996838;28;20061;-72
2022/08/09 01:48:38;;;;;;;4.70;2.80;;;;;;;15.92;89.58;102743.81;4996632;28;20363;-72
2022/08/09 01:51:05;;;;;;;5.80;2.80;;;;;;;15.95;89.59;102761.69;4995434;28;20026;-73
2022/08/09 01:53:32;;;;;;;5.40;2.70;;;;;;;15.73;90.42;102761.50;4996758;28;20089;-73
2022/08/09 01:56:00;;;;;;;6.03;2.83;;;;;;;15.84;90.30;102751.66;4996561;28;20121;-73
2022/08/09 01:58:27;;;;;;;10.18;3.00;;;;;;;15.90;90.94;102748.38;4996412;28;20077;-73
2022/08/09 02:00:54;;;;;;;6.47;3.10;;;;;;;15.81;90.81;102746.81;4997029;28;20033;-73
2022/08/09 02:03:22;;;;;;;9.82;3.20;;;;;;;15.86;90.75;102752.31;4998425;28;20076;-72
2022/08/09 02:05:50;;;;;;;8.55;3.13;;;;;;;15.79;90.79;102746.97;4999426;28;20049;-72
2022/08/09 02:08:20;;;;;;;6.57;2.60;;;;;;;15.78;91.21;102751.38;4998517;28;20025;-73
2022/08/09 02:10:48;;;;;;;7.47;3.20;;;;;;;15.72;90.88;102756.47;4999639;28;20113;-73
2022/08/09 02:13:14;;;;;;;7.20;3.28;;;;;;;15.75;91.19;102753.53;4998891;28;20033;-73
2022/08/09 02:15:47;;;;;;;4.93;3.10;;;;;;;15.84;91.40;102760.31;5014831;28;20030;-72
2022/08/09 02:18:16;;;;;;;7.63;3.38;;;;;;;15.71;91.20;102745.25;4996795;28;20092;-72
2022/08/09 02:20:45;;;;;;;6.03;3.47;;;;;;;15.84;90.89;102759.50;4998202;28;20049;-73
2022/08/09 02:23:19;;;;;;;7.00;3.63;;;;;;;15.85;90.89;102766.31;4999274;28;20141;-74
2022/08/09 02:25:48;;;;;;;8.70;3.80;;;;;;;15.87;90.51;102762.56;5003830;28;20093;-73
2022/08/09 02:28:24;;;;;;;5.22;3.25;;;;;;;15.84;89.89;102764.72;5006743;28;20018;-75
2022/08/09 02:30:57;;;;;;;8.63;3.83;;;;;;;15.93;90.94;102759.25;5010046;28;20474;-73
2022/08/09 02:33:25;;;;;;;12.55;3.85;;;;;;;15.79;90.70;102766.06;5010093;28;20025;-73
2022/08/09 02:35:53;;;;;;;8.02;4.07;;;;;;;15.75;91.36;102767.38;5009808;28;20022;-76
2022/08/09 02:38:25;;;;;;;9.18;4.13;;;;;;;15.67;92.51;102762.16;5010711;28;20030;-76
2022/08/09 02:40:52;;;;;;;10.88;4.45;;;;;;;15.57;94.20;102749.38;5012229;28;20026;-72
2022/08/09 02:43:19;;;;;;;10.52;4.82;;;;;;;15.51;94.12;102749.25;5011904;28;20052;-73
2022/08/09 02:45:47;;;;;;;10.38;4.68;;;;;;;15.57;94.03;102748.56;4998977;28;20034;-73
2022/08/09 02:48:15;;;;;;;8.68;5.13;;;;;;;15.49;94.79;102748.59;4998242;28;20025;-73
2022/08/09 02:50:47;;;;;;;7.80;4.38;;;;;;;15.65;94.01;102753.72;4999123;28;20050;-74
2022/08/09 02:53:28;;;;;;;8.82;4.93;;;;;;;15.54;94.15;102752.31;4996122;28;20482;-73
2022/08/09 02:55:56;;;;;;;10.55;5.10;;;;;;;15.56;94.31;102742.53;4998001;28;20034;-73
2022/08/09 02:58:25;;;;;;;8.57;5.00;;;;;;;15.46;94.94;102736.72;4996495;28;20026;-75
2022/08/09 03:00:51;;;;;;;10.07;4.75;;;;;;;15.65;94.70;102740.69;4998717;28;20029;-74
2022/08/09 03:03:18;;;;;;;6.55;4.45;;;;;;;15.58;94.05;102740.56;4995939;28;20359;-73
2022/08/09 03:05:44;;;;;;;13.20;5.20;;;;;;;15.52;94.02;102741.25;4997278;28;20022;-73
2022/08/09 03:08:12;;;;;;;11.40;4.97;;;;;;;15.57;95.33;102735.53;4995990;28;20026;-73
2022/08/09 03:10:39;;;;;;;10.00;5.10;;;;;;;15.54;94.46;102731.47;4996106;28;20026;-73
2022/08/09 03:13:05;;;;;;;9.13;5.72;;;;;;;15.46;94.60;102731.50;4995692;28;20026;-73
2022/08/09 03:15:32;;;;;;;7.72;5.03;;;;;;;15.53;94.61;102729.84;4995409;28;20371;-72
2022/08/09 03:17:57;;;;;;;8.43;4.80;;;;;;;15.53;93.76;102735.03;4995044;28;20057;-72
2022/08/09 03:20:23;;;;;;;10.18;5.50;;;;;;;15.37;94.55;102737.75;4993908;28;20420;-72
2022/08/09 03:22:50;;;;;;;11.07;5.00;;;;;;;15.42;95.48;102735.47;4994760;28;20411;-73
2022/08/09 03:25:15;;;;;;;9.30;5.20;;;;;;;15.39;94.89;102734.97;4995056;28;20125;-73
2022/08/09 03:27:42;;;;;;;11.10;5.13;;;;;;;15.31;95.93;102731.44;4993788;28;20054;-72
2022/08/09 03:30:09;;;;;;;10.00;5.07;;;;;;;15.49;95.19;102728.56;4993121;28;20058;-72
2022/08/09 03:32:36;;;;;;;9.27;5.53;;;;;;;15.25;95.78;102731.31;4994843;28;20411;-72
2022/08/09 03:35:01;;;;;;;9.77;5.28;;;;;;;15.33;95.91;102736.47;4993341;28;20493;-73
2022/08/09 03:37:27;;;;;;;9.30;5.72;;;;;;;15.42;95.26;102734.63;4994747;28;20067;-71
2022/08/09 03:39:53;;;;;;;10.60;5.53;;;;;;;15.28;95.85;102731.78;4994518;28;20077;-73
2022/08/09 03:42:18;;;;;;;8.73;5.30;;;;;;;15.44;96.09;102738.69;4993211;28;20073;-73
2022/08/09 03:44:43;;;;;;;9.77;5.65;;;;;;;15.42;95.95;102747.66;4994519;28;20065;-73
2022/08/09 03:47:09;;;;;;;10.70;5.47;;;;;;;15.42;95.75;102745.03;4993214;28;20471;-73
2022/08/09 03:49:35;;;;;;;7.18;5.55;;;;;;;15.35;95.26;102740.53;4994262;28;20414;-74
2022/08/09 03:52:01;;;;;;;9.70;5.28;;;;;;;15.28;95.71;102747.41;4993081;28;20030;-72
2022/08/09 03:54:38;;;;;;;10.23;5.40;;;;;;;15.28;95.50;102757.03;4992943;28;20474;-73
2022/08/09 03:57:06;;;;;;;8.60;5.72;;;;;;;15.28;96.58;102760.44;4994175;28;20028;-74
2022/08/09 03:59:32;;;;;;;9.45;5.55;;;;;;;15.37;96.32;102748.19;4993164;28;20030;-72
2022/08/09 04:01:58;;;;;;;8.05;5.03;;;;;;;15.32;95.72;102756.50;4994135;28;20022;-72
2022/08/09 04:04:28;;;;;;;10.23;5.90;;;;;;;15.39;96.08;102761.03;4994243;28;20045;-73
2022/08/09 04:06:54;;;;;;;9.43;5.57;;;;;;;15.38;95.55;102772.44;4994148;28;20514;-73
2022/08/09 04:09:20;;;;;;;12.70;5.85;;;;;;;15.32;95.56;102772.13;4992792;28;20157;-73
2022/08/09 04:12:04;;;;;;;13.30;5.53;;;;;;;15.16;95.69;102772.19;4992646;28;20022;-72
2022/08/09 04:14:29;;;;;;;11.20;5.22;;;;;;;15.05;95.52;102780.38;4993956;28;20026;-72
2022/08/09 04:16:55;;;;;;;8.82;5.63;;;;;;;14.92;97.10;102780.91;4993821;28;20030;-72
2022/08/09 04:19:20;;;;;;;10.73;5.68;;;;;;;15.06;97.37;102776.78;4993851;28;20418;-73
2022/08/09 04:21:45;;;;;;;11.23;5.68;;;;;;;15.07;96.75;102788.81;4992380;28;20145;-72
2022/08/09 04:24:11;;;;;;;9.60;5.45;;;;;;;14.96;95.85;102783.97;4992579;28;20389;-72
2022/08/09 04:26:36;;;;;;;10.82;5.20;;;;;;;15.08;96.58;102788.66;4992523;28;20022;-72
2022/08/09 04:29:01;;;;;;;7.93;5.28;;;;;;;15.14;95.59;102788.97;4993774;28;20101;-72
2022/08/09 04:31:27;;;;;;;9.32;5.35;;;;;;;14.95;96.13;102779.75;4992650;28;20026;-72
2022/08/09 04:33:53;;;;;;;10.23;5.65;;;;;;;15.02;96.34;102785.94;4993732;28;20041;-72
2022/08/09 04:36:22;;;;;;;9.75;5.30;;;;;;;15.06;95.38;102782.81;4993804;28;20030;-71
2022/08/09 04:38:48;;;;;;;8.30;5.22;;;;;;;15.01;95.70;102790.31;4993740;28;20026;-72
2022/08/09 04:41:13;;;;;;;9.68;5.25;;;;;;;14.86;95.74;102795.38;4993077;28;20037;-73
2022/08/09 04:43:38;;;;;;;8.82;5.05;;;;;;;14.89;95.42;102797.66;4996430;28;20100;-73
2022/08/09 04:46:03;;;;;;;12.25;5.10;;;;;;;15.03;95.77;102798.75;4997842;28;20022;-73
2022/08/09 04:48:29;;;;;;;10.02;5.40;;;;;;;15.15;95.01;102791.41;4996450;28;20018;-72
2022/08/09 04:50:54;;;;;;;10.40;5.85;;;;;;;15.16;95.22;102794.81;4997597;28;20161;-72
2022/08/09 04:53:20;;;;;;;9.73;5.70;;;;;;;15.16;95.55;102790.41;4997416;28;20034;-72
2022/08/09 04:55:45;;;;;;;9.48;5.47;;;;;;;15.14;95.63;102792.38;4997420;28;20018;-72
2022/08/09 04:58:10;;;;;;;12.05;5.50;;;;;;;15.27;95.07;102797.84;4996131;28;20034;-72
2022/08/09 05:00:36;;;;;;;11.35;5.30;;;;;;;15.40;94.54;102799.94;4996158;28;20081;-72
2022/08/09 05:03:03;;;;;;;13.35;5.80;;;;;;;15.49;94.87;102798.09;4997388;28;20026;-72
2022/08/09 05:05:29;;;;;;;9.35;5.68;;;;;;;15.45;93.68;102796.81;4997822;28;20037;-72
2022/08/09 05:07:55;;;;;;;11.82;6.20;;;;;;;15.40;94.16;102799.94;4996120;28;20018;-72
2022/08/09 05:10:20;;;;;;;12.32;6.18;;;;;;;15.56;95.11;102806.84;4997365;28;20022;-72
2022/08/09 05:12:45;;;;;;;11.88;6.35;;;;;;;15.60;94.51;102805.56;4997231;28;20497;-71
2022/08/09 05:15:10;;;;;;;14.43;6.20;;;;;;;15.41;95.12;102816.38;4997172;28;20053;-72
2022/08/09 05:17:36;;;;;;;10.05;5.97;;;;;;;15.35;94.61;102810.06;4996971;28;20033;-72
2022/08/09 05:20:02;;;;;;;11.73;6.40;;;;;;;15.52;94.85;102803.78;4997005;28;20077;-72
2022/08/09 05:22:27;;;;;;;10.27;5.82;;;;;;;15.63;94.45;102807.00;4995615;28;20121;-72
2022/08/09 05:24:52;;;;;;;12.00;6.13;;;;;;;15.71;94.38;102813.00;4997154;28;20034;-72
2022/08/09 05:27:18;;;;;;;10.38;5.72;;;;;;;15.71;94.61;102817.41;4995620;28;20018;-72
2022/08/09 05:29:43;;;;;;;13.13;5.82;;;;;;;15.84;94.05;102809.03;4997047;28;20026;-72
2022/08/09 05:32:08;;;;;;;9.43;5.47;;;;;;;15.94;93.04;102815.66;4995559;28;20382;-72
2022/08/09 05:34:33;;;;;;;11.80;5.78;;;;;;;15.88;93.43;102805.06;4996751;28;20030;-73
2022/08/09 05:37:01;;;;;;;8.77;5.50;;;;;;;16.09;93.12;102814.91;4996703;28;20026;-73
2022/08/09 05:39:26;;;;;;;8.98;6.00;;;;;;;16.12;93.01;102807.53;4995296;28;20081;-72
2022/08/09 05:41:51;;;;;;;10.18;5.60;;;;;;;16.17;93.25;102815.66;4995370;28;20022;-72
2022/08/09 05:44:17;;;;;;;17.75;6.35;;;;;;;16.32;92.29;102820.13;4996618;28;20030;-72
2022/08/09 05:46:42;;;;;;;8.63;5.70;;;;;;;16.26;92.92;102819.00;4995177;28;20490;-72
2022/08/09 05:49:07;;;;;;;10.65;5.60;;;;;;;16.31;92.97;102819.28;4995351;28;20605;-73
2022/08/09 05:51:33;;;;;;;10.80;5.60;;;;;;;16.39;93.08;102826.22;4995236;28;20030;-73
2022/08/09 05:53:58;;;;;;;10.73;5.80;;;;;;;16.59;91.94;102827.34;4995338;28;20549;-73
2022/08/09 05:56:24;;;;;;;13.07;5.80;;;;;;;16.57;91.48;102821.53;4996429;28;20026;-73
2022/08/09 05:58:50;;;;;;;11.23;5.38;;;;;;;16.43;92.59;102823.13;4995134;28;20027;-73
2022/08/09 06:01:15;;;;;;;13.38;5.55;;;;;;;16.63;91.59;102833.88;4996410;28;20031;-73
2022/08/09 06:03:40;;;;;;;12.90;5.40;;;;;;;16.94;91.15;102843.38;4999548;28;20060;-73
2022/08/09 06:06:06;;;;;;;10.40;5.10;;;;;;;19.62;81.13;102830.66;4999067;28;20022;-73
2022/08/09 06:08:31;;;;;;;14.00;4.10;;;;;;;26.98;51.08;102834.97;4998740;28;20475;-74
2022/08/09 06:10:57;;;;;;;10.32;4.05;;;;;;;27.75;47.69;102837.59;5010279;28;20022;-73
2022/08/09 06:13:23;;;;;;;7.80;3.40;;;;;;;29.61;42.09;102839.81;4996627;28;20092;-73
2022/08/09 06:15:50;;;;;;;5.13;3.03;;;;;;;28.67;43.80;102836.38;4995712;28;20349;-74
2022/08/09 06:18:15;;;;;;;6.38;2.90;;;;;;;29.62;42.40;102844.09;4996733;28;20402;-73
2022/08/09 06:20:40;;;;;;;4.73;2.70;;;;;;;30.01;40.33;102846.22;4995520;28;20029;-73
2022/08/09 06:23:06;;;;;;;5.20;2.70;;;;;;;30.37;40.47;102837.34;4997248;28;20721;-73
2022/08/09 06:25:31;;;;;;;3.97;2.22;;;;;;;30.72;39.20;102833.72;4996237;28;20026;-72
2022/08/09 06:27:57;;;;;;;7.43;2.72;;;;;;;31.04;38.48;102841.31;4995689;28;20022;-73
2022/08/09 06:30:22;;;;;;;5.33;2.40;;;;;;;31.10;37.80;102844.75;4995835;28;20401;-73
2022/08/09 06:32:50;;;;;;;5.03;2.63;;;;;;;31.09;38.29;102840.50;4995237;28;20332;-74
2022/08/09 06:35:15;;;;;;;5.20;2.30;;;;;;;32.07;36.35;102850.16;4996156;28;20057;-73
2022/08/09 06:37:40;;;;;;;7.80;2.47;;;;;;;30.08;38.70;102851.25;4996636;28;20066;-73
2022/08/09 06:40:06;;;;;;;4.50;2.13;;;;;;;31.98;35.76;102859.09;4996300;28;20124;-74
2022/08/09 06:42:31;;;;;;;4.22;2.10;;;;;;;31.67;36.26;102859.34;4994824;28;20324;-73
2022/08/09 06:44:58;;;;;;;6.60;2.30;;;;;;;32.40;34.76;102862.91;4996327;28;20026;-73
2022/08/09 06:47:23;;;;;;;8.13;2.28;;;;;;;32.93;33.86;102852.09;4994714;28;20631;-74
2022/08/09 06:49:48;;;;;;;5.47;2.08;;;;;;;32.44;34.49;102866.63;4995299;28;20026;-73
2022/08/09 06:52:14;;;;;;;6.30;2.28;;;;;;;32.89;33.94;102869.84;4994397;28;20527;-74
2022/08/09 06:54:39;;;;;;;6.57;2.28;;;;;;;32.77;33.88;102857.69;4994246;28;20022;-73
2022/08/09 06:57:04;;;;;;;6.60;2.50;;;;;;;31.21;36.51;102865.78;4995279;28;20030;-73
2022/08/09 06:59:30;;;;;;;5.45;2.25;;;;;;;32.43;34.01;102863.16;4994079;28;20671;-73
2022/08/09 07:01:55;;;;;;;5.15;2.30;;;;;;;30.42;37.24;102874.69;4994113;28;20088;-73
2022/08/09 07:04:20;;;;;;;3.40;1.95;;;;;;;31.81;35.37;102870.97;4993433;28;20018;-73
2022/08/09 07:06:46;;;;;;;7.97;2.30;;;;;;;31.56;36.02;102871.97;4993739;28;20025;-73
2022/08/09 07:09:11;;;;;;;5.72;2.30;;;;;;;31.54;35.54;102865.34;4993980;28;20274;-73
2022/08/09 07:11:37;;;;;;;7.60;2.50;;;;;;;32.72;34.00;102863.09;4995029;28;20104;-73
2022/08/09 07:14:02;;;;;;;4.75;2.40;;;;;;;32.99;33.37;102867.84;4993592;28;20034;-73
2022/08/09 07:16:27;;;;;;;4.88;2.20;;;;;;;32.87;33.77;102864.78;4995029;28;20026;-73
2022/08/09 07:18:53;;;;;;;5.90;2.30;;;;;;;33.02;33.66;102871.81;4993566;28;20030;-73
2022/08/09 07:21:18;;;;;;;4.93;2.40;;;;;;;32.00;34.74;102875.66;4996230;28;20037;-73
2022/08/09 07:23:43;;;;;;;6.43;2.20;;;;;;;32.56;34.16;102873.19;4995614;28;20365;-73
2022/08/09 07:26:09;;;;;;;5.70;2.38;;;;;;;32.55;33.65;102870.81;4994948;28;20030;-73
2022/08/09 07:28:34;;;;;;;5.07;2.20;;;;;;;31.06;36.04;102865.88;4993954;28;20030;-72
2022/08/09 07:31:00;;;;;;;6.50;2.58;;;;;;;31.22;35.80;102871.94;4995772;28;20022;-73
2022/08/09 07:33:25;;;;;;;4.30;2.10;;;;;;;32.10;34.80;102879.00;4995485;28;20027;-74
2022/08/09 07:35:50;;;;;;;5.43;2.35;;;;;;;30.42;37.13;102877.34;4996299;28;20026;-73
2022/08/09 07:38:16;;;;;;;6.60;2.60;;;;;;;29.88;38.89;102870.72;4995447;28;20101;-72
2022/08/09 07:40:41;;;;;;;4.67;2.50;;;;;;;28.48;41.05;102869.78;4995219;28;20026;-72
2022/08/09 07:43:06;;;;;;;6.57;2.70;;;;;;;30.02;38.38;102868.31;4995314;28;20805;-73
2022/08/09 07:45:31;;;;;;;6.78;2.85;;;;;;;27.91;42.46;102868.59;4995083;28;20022;-74
2022/08/09 07:47:58;;;;;;;4.57;2.42;;;;;;;29.19;40.13;102871.97;4995731;28;20054;-72
2022/08/09 07:50:26;;;;;;;6.13;2.60;;;;;;;28.67;41.81;102864.84;4997065;28;20061;-74
2022/08/09 07:52:54;;;;;;;5.25;2.70;;;;;;;27.42;43.90;102858.84;4996160;28;20390;-74
2022/08/09 07:55:20;;;;;;;6.20;2.40;;;;;;;26.87;46.06;102846.50;4998407;28;20090;-74
2022/08/09 07:57:47;;;;;;;4.88;2.30;;;;;;;26.42;46.89;102852.00;4998548;28;20073;-74
2022/08/09 08:00:17;;;;;;;5.95;2.40;;;;;;;26.73;46.82;102853.25;4993154;28;20026;-74
2022/08/09 08:02:42;;;;;;;9.75;2.42;;;;;;;25.91;47.63;102862.63;5001540;28;20022;-76
2022/08/09 08:05:08;;;;;;;4.18;2.30;;;;;;;25.36;49.60;102842.03;5007207;28;20012;-74
2022/08/09 08:07:34;;;;;;;4.45;2.20;;;;;;;25.25;49.89;102856.91;5006293;28;20030;-73
2022/08/09 08:09:59;;;;;;;6.63;2.30;;;;;;;25.39;49.94;102857.44;4999304;28;20068;-72
2022/08/09 08:12:25;;;;;;;6.40;1.85;;;;;;;25.37;49.82;102862.97;4996745;28;20073;-73
2022/08/09 08:14:50;;;;;;;5.85;2.10;;;;;;;26.13;47.37;102865.34;4993425;28;20464;-72
2022/08/09 08:17:15;;;;;;;4.45;1.77;;;;;;;26.34;46.79;102871.75;4993879;28;20038;-73
2022/08/09 08:19:41;;;;;;;6.07;1.80;;;;;;;25.37;47.79;102870.09;4994720;28;20058;-73
2022/08/09 08:22:06;;;;;;;4.03;1.52;;;;;;;24.40;49.49;102875.94;4995047;28;20050;-74
2022/08/09 08:24:31;;;;;;;3.83;1.63;;;;;;;23.77;50.50;102874.69;5003529;28;20026;-73
2022/08/09 08:26:57;;;;;;;4.22;1.58;;;;;;;25.08;48.57;102875.34;4994417;28;20031;-73
2022/08/09 08:29:25;;;;;;;5.85;1.60;;;;;;;25.97;47.82;102882.03;4994988;28;20098;-73
2022/08/09 08:31:50;;;;;;;3.30;1.63;;;;;;;25.44;48.07;102879.50;4994797;28;20541;-73
2022/08/09 08:34:16;;;;;;;2.63;1.50;;;;;;;23.69;51.31;102878.41;4995461;28;20022;-74
2022/08/09 08:36:41;;;;;;;6.10;1.50;;;;;;;25.51;47.59;102873.28;4993993;28;20752;-74
2022/08/09 08:39:06;;;;;;;3.08;1.23;;;;;;;26.31;45.33;102872.25;4993045;28;20026;-73
2022/08/09 08:41:32;;;;;;;3.03;1.52;;;;;;;25.81;46.69;102867.72;4994164;28;20044;-74
2022/08/09 08:43:58;;;;;;;4.05;1.63;;;;;;;26.09;46.33;102869.50;4995768;28;20034;-74
2022/08/09 08:46:29;;;;;;;3.83;1.45;;;;;;;25.21;47.46;102872.47;4996191;28;20548;-73
2022/08/09 08:48:54;;;;;;;2.63;1.63;;;;;;;25.30;46.47;102882.69;4996061;28;20027;-73
2022/08/09 08:51:23;;;;;;;4.30;1.42;;;;;;;26.42;44.10;102874.00;4993450;28;20336;-73
2022/08/09 08:53:53;;;;;;;5.43;1.38;;;;;;;26.23;44.35;102865.50;4994770;28;20057;-73
2022/08/09 08:56:19;;;;;;;3.45;1.50;;;;;;;26.30;44.85;102863.50;4995563;28;20497;-74
2022/08/09 08:58:46;;;;;;;5.80;1.60;;;;;;;26.55;43.05;102868.38;4993421;28;20027;-73
2022/08/09 09:01:12;;;;;;;2.40;1.20;;;;;;;26.19;44.67;102869.69;4994990;28;20498;-74
2022/08/09 09:03:40;;;;;;;3.78;1.55;;;;;;;26.19;44.23;102866.25;5004890;28;20448;-73
2022/08/09 09:06:06;;;;;;;5.20;1.30;;;;;;;26.44;43.40;102865.78;5001794;28;20026;-74
2022/08/09 09:08:36;;;;;;;2.53;1.13;;;;;;;26.41;42.71;102876.88;5004677;28;20023;-73
2022/08/09 09:11:04;;;;;;;3.63;1.02;;;;;;;27.14;41.09;102872.31;4997534;28;20437;-72
2022/08/09 09:13:38;;;;;;;1.30;0.70;;;;;;;25.57;41.70;102867.03;5002778;28;20037;-75
2022/08/09 09:16:04;;;;;;;2.60;1.00;;;;;;;25.54;43.26;102883.38;4994435;28;20061;-74
2022/08/09 09:18:30;;;;;;;3.63;0.90;;;;;;;24.71;43.05;102886.19;4994750;28;20065;-71
2022/08/09 09:20:56;;;;;;;5.40;1.13;;;;;;;25.13;42.67;102870.16;4993660;28;20031;-73
2022/08/09 09:23:41;;;;;;;1.83;0.75;;;;;;;26.32;40.21;102879.94;4992545;28;20099;-73
2022/08/09 09:26:07;;;;;;;3.40;1.10;;;;;;;25.37;43.58;102870.91;4993560;28;20430;-74
2022/08/09 09:28:34;;;;;;;2.75;0.95;;;;;;;26.21;41.55;102877.38;4995236;28;20053;-74
2022/08/09 09:31:00;;;;;;;2.15;0.82;;;;;;;25.51;42.95;102884.66;4997205;28;20027;-74
2022/08/09 09:33:35;;;;;;;1.40;0.80;;;;;;;26.65;41.20;102874.88;4997675;28;20076;-74
2022/08/09 09:36:07;;;;;;;2.53;1.35;;;;;;;27.49;39.73;102879.88;4995951;28;20509;-74
2022/08/09 09:38:56;;;;;;;2.27;1.00;;;;;;;26.90;41.10;102859.28;4997499;28;20026;-73
2022/08/09 09:41:22;;;;;;;2.10;1.00;;;;;;;26.83;41.33;102852.56;4995771;28;20058;-74
2022/08/09 09:43:47;;;;;;;3.90;1.50;;;;;;;25.34;42.99;102874.00;4995384;28;20026;-73
2022/08/09 09:46:13;;;;;;;1.88;0.80;;;;;;;26.72;41.43;102878.16;4997144;28;20038;-74
2022/08/09 09:48:38;;;;;;;2.72;0.90;;;;;;;27.43;40.04;102886.97;4995499;28;20018;-74
2022/08/09 09:51:03;;;;;;;3.03;1.02;;;;;;;27.09;40.19;102864.28;4997555;28;20093;-74
2022/08/09 09:53:29;;;;;;;5.55;1.45;;;;;;;27.01;39.59;102870.81;4995463;28;20437;-74
2022/08/09 09:55:56;;;;;;;2.00;0.90;;;;;;;26.53;40.79;102873.13;4996392;28;20018;-74
2022/08/09 09:58:21;;;;;;;3.28;0.80;;;;;;;25.72;41.48;102875.25;4997374;28;20065;-74
2022/08/09 10:00:53;;;;;;;0.98;0.68;;;;;;;26.96;39.17;102876.88;4995263;28;20026;-74
2022/08/09 10:03:46;;;;;;;1.95;0.77;;;;;;;27.06;39.26;102872.72;4995581;28;20138;-74
2022/08/09 10:06:12;;;;;;;2.13;0.90;;;;;;;27.16;39.52;102876.34;4996365;28;20148;-75
2022/08/09 10:08:37;;;;;;;1.13;0.60;;;;;;;25.68;41.13;102874.09;4996241;28;20486;-75
2022/08/09 10:11:27;;;;;;;2.17;0.73;;;;;;;27.63;38.61;102867.78;4996180;28;20077;-74
2022/08/09 10:13:53;;;;;;;2.53;0.77;;;;;;;26.80;39.63;102868.97;4995038;28;20030;-73
2022/08/09 10:16:34;;;;;;;2.75;1.08;;;;;;;27.51;38.22;102872.47;4994966;28;20022;-74
2022/08/09 10:19:08;;;;;;;3.15;0.68;;;;;;;27.60;38.00;102868.28;4995196;28;20033;-74
2022/08/09 10:21:46;;;;;;;3.75;0.90;;;;;;;26.83;40.51;102863.97;4994642;28;20162;-75
2022/08/09 10:24:13;;;;;;;3.67;0.70;;;;;;;26.77;40.59;102857.78;4994931;28;20053;-74
2022/08/09 10:26:39;;;;;;;3.00;0.90;;;;;;;27.27;39.22;102858.66;4995919;28;20395;-75
2022/08/09 10:29:05;;;;;;;2.38;0.82;;;;;;;26.48;39.97;102856.31;4994651;28;20027;-74
2022/08/09 10:31:30;;;;;;;1.70;0.82;;;;;;;27.93;37.87;102860.34;4996320;28;20365;-73
2022/08/09 10:33:57;;;;;;;4.05;0.73;;;;;;;27.47;37.37;102855.41;4995853;28;20125;-74
2022/08/09 10:36:22;;;;;;;2.13;0.80;;;;;;;28.70;35.46;102853.69;4995772;28;20049;-74
2022/08/09 10:38:48;;;;;;;3.20;0.70;;;;;;;27.32;38.54;102852.63;4994568;28;20474;-74
2022/08/09 10:41:14;;;;;;;2.92;0.73;;;;;;;28.55;36.18;102857.06;4994441;28;20037;-74
2022/08/09 10:43:46;;;;;;;0.82;0.68;;;;;;;27.06;37.98;102848.84;4995090;28;20029;-75
2022/08/09 10:46:50;;;;;;;4.27;0.90;;;;;;;27.12;36.85;102856.63;4995630;28;20035;-74
2022/08/09 10:49:37;;;;;;;1.65;0.70;;;;;;;27.82;37.52;102847.00;4994944;28;20491;-74
2022/08/09 10:52:39;;;;;;;1.50;0.70;;;;;;;27.14;38.30;102848.41;4995357;28;20054;-74
2022/08/09 10:55:26;;;;;;;3.13;0.90;;;;;;;27.92;36.97;102845.47;4994063;28;20398;-74
2022/08/09 10:57:52;;;;;;;1.92;0.70;;;;;;;28.19;37.22;102837.41;4993938;28;20079;-73
2022/08/09 11:00:31;;;;;;;2.00;0.82;;;;;;;28.00;37.24;102853.78;4994037;28;20493;-74
2022/08/09 11:02:57;;;;;;;4.45;0.88;;;;;;;27.84;37.02;102831.59;4995165;28;20034;-74
2022/08/09 11:05:23;;;;;;;3.10;0.93;;;;;;;27.14;38.41;102837.81;4995208;28;20030;-74
2022/08/09 11:07:49;;;;;;;3.58;0.80;;;;;;;27.31;37.96;102843.06;4995084;28;20038;-74
2022/08/09 11:10:36;;;;;;;1.98;0.88;;;;;;;28.12;36.26;102849.06;4993827;28;20030;-73
2022/08/09 11:13:18;;;;;;;2.85;0.77;;;;;;;27.93;36.68;102849.72;4994968;28;20027;-73
2022/08/09 11:15:44;;;;;;;1.83;0.90;;;;;;;28.23;36.56;102826.03;4995234;28;20521;-74
2022/08/09 11:18:14;;;;;;;4.63;1.00;;;;;;;28.29;36.50;102837.50;4995009;28;20030;-74
2022/08/09 11:20:44;;;;;;;6.05;1.25;;;;;;;28.91;35.79;102833.25;4995747;28;20022;-74
2022/08/09 11:23:10;;;;;;;1.45;0.70;;;;;;;29.29;34.90;102831.25;4994569;28;20061;-75
2022/08/09 11:25:38;;;;;;;5.85;0.90;;;;;;;27.96;36.61;102827.97;4995080;28;20494;-74
2022/08/09 11:28:37;;;;;;;1.75;0.82;;;;;;;28.31;36.57;102825.53;4994815;28;20112;-74